sensor_id;sensor_type;location;lat;lon;timestamp;pressure;altitude;pressure_sealevel;temperature;humidity
68075;BME280;54864;52.002;5.468;2023-04-09T00:00:45;102480.94;;;12.35;69.10
68075;BME280;54864;52.002;5.468;2023-04-09T00:01:48;102483.75;;;12.28;68.86
68075;BME280;54864;52.002;5.468;2023-04-09T00:02:52;102480.94;;;12.34;68.73
68075;BME280;54864;52.002;5.468;2023-04-09T00:03:52;102489.53;;;12.44;68.24
68075;BME280;54864;52.002;5.468;2023-04-09T00:04:54;102489.41;;;12.48;68.33
68075;BME280;54864;52.002;5.468;2023-04-09T00:05:55;102482.59;;;12.40;67.88
68075;BME280;54864;52.002;5.468;2023-04-09T00:06:57;102480.94;;;12.34;67.66
68075;BME280;54864;52.002;5.468;2023-04-09T00:07:57;102480.13;;;12.32;68.17
68075;BME280;54864;52.002;5.468;2023-04-09T00:08:59;102480.94;;;12.34;68.56
68075;BME280;54864;52.002;5.468;2023-04-09T00:10:00;102488.00;;;12.33;68.69
68075;BME280;54864;52.002;5.468;2023-04-09T00:11:02;102484.56;;;12.30;68.97
68075;BME280;54864;52.002;5.468;2023-04-09T00:12:04;102484.53;;;12.31;68.82
68075;BME280;54864;52.002;5.468;2023-04-09T00:13:05;102482.75;;;12.32;69.34
68075;BME280;54864;52.002;5.468;2023-04-09T00:14:08;102480.03;;;12.36;69.34
68075;BME280;54864;52.002;5.468;2023-04-09T00:15:09;102481.81;;;12.34;68.74
68075;BME280;54864;52.002;5.468;2023-04-09T00:16:11;102483.88;;;12.23;69.24
68075;BME280;54864;52.002;5.468;2023-04-09T00:17:12;102482.88;;;12.27;69.67
68075;BME280;54864;52.002;5.468;2023-04-09T00:18:15;102478.34;;;12.32;69.29
68075;BME280;54864;52.002;5.468;2023-04-09T00:19:16;102480.94;;;12.34;69.36
68075;BME280;54864;52.002;5.468;2023-04-09T00:20:17;102480.91;;;12.37;69.28
68075;BME280;54864;52.002;5.468;2023-04-09T00:21:20;102473.78;;;12.39;69.23
68075;BME280;54864;52.002;5.468;2023-04-09T00:22:22;102480.97;;;12.32;69.46
68075;BME280;54864;52.002;5.468;2023-04-09T00:23:23;102478.56;;;12.23;69.55
68075;BME280;54864;52.002;5.468;2023-04-09T00:24:27;102473.53;;;12.14;69.67
68075;BME280;54864;52.002;5.468;2023-04-09T00:25:31;102469.81;;;12.21;69.52
68075;BME280;54864;52.002;5.468;2023-04-09T00:26:37;102471.47;;;12.25;69.07
68075;BME280;54864;52.002;5.468;2023-04-09T00:27:37;102480.69;;;12.09;69.38
68075;BME280;54864;52.002;5.468;2023-04-09T00:28:40;102471.72;;;12.16;69.82
68075;BME280;54864;52.002;5.468;2023-04-09T00:29:42;102478.19;;;12.04;69.98
68075;BME280;54864;52.002;5.468;2023-04-09T00:30:46;102471.72;;;12.16;69.47
68075;BME280;54864;52.002;5.468;2023-04-09T00:31:46;102468.25;;;12.14;69.88
68075;BME280;54864;52.002;5.468;2023-04-09T00:32:48;102466.53;;;12.12;69.42
68075;BME280;54864;52.002;5.468;2023-04-09T00:33:51;102463.97;;;12.09;69.80
68075;BME280;54864;52.002;5.468;2023-04-09T00:34:53;102465.50;;;12.17;69.89
68075;BME280;54864;52.002;5.468;2023-04-09T00:35:53;102472.34;;;12.26;69.75
68075;BME280;54864;52.002;5.468;2023-04-09T00:36:55;102464.53;;;12.21;70.04
68075;BME280;54864;52.002;5.468;2023-04-09T00:37:56;102462.81;;;12.19;69.88
68075;BME280;54864;52.002;5.468;2023-04-09T00:38:58;102470.81;;;12.17;69.38
68075;BME280;54864;52.002;5.468;2023-04-09T00:40:01;102466.56;;;12.10;68.88
68075;BME280;54864;52.002;5.468;2023-04-09T00:41:03;102465.72;;;12.10;68.94
68075;BME280;54864;52.002;5.468;2023-04-09T00:42:04;102465.03;;;12.01;69.37
68075;BME280;54864;52.002;5.468;2023-04-09T00:43:05;102458.84;;;12.02;69.68
68075;BME280;54864;52.002;5.468;2023-04-09T00:44:06;102459.59;;;12.07;69.41
68075;BME280;54864;52.002;5.468;2023-04-09T00:45:10;102461.22;;;12.13;69.01
68075;BME280;54864;52.002;5.468;2023-04-09T00:46:11;102464.97;;;12.04;69.38
68075;BME280;54864;52.002;5.468;2023-04-09T00:47:13;102463.19;;;12.05;70.18
68075;BME280;54864;52.002;5.468;2023-04-09T00:48:15;102463.06;;;12.10;70.25
68075;BME280;54864;52.002;5.468;2023-04-09T00:49:17;102464.16;;;12.01;70.15
68075;BME280;54864;52.002;5.468;2023-04-09T00:50:19;102459.50;;;12.11;70.10
68075;BME280;54864;52.002;5.468;2023-04-09T00:51:21;102458.38;;;12.21;69.55
68075;BME280;54864;52.002;5.468;2023-04-09T00:52:23;102453.81;;;12.26;69.30
68075;BME280;54864;52.002;5.468;2023-04-09T00:53:25;102459.94;;;12.28;68.93
68075;BME280;54864;52.002;5.468;2023-04-09T00:54:26;102463.47;;;12.28;68.95
68075;BME280;54864;52.002;5.468;2023-04-09T00:55:28;102456.31;;;12.32;69.25
68075;BME280;54864;52.002;5.468;2023-04-09T00:56:30;102453.94;;;12.21;69.26
68075;BME280;54864;52.002;5.468;2023-04-09T00:57:34;102461.28;;;12.10;69.89
68075;BME280;54864;52.002;5.468;2023-04-09T00:58:35;102454.84;;;12.20;69.48
68075;BME280;54864;52.002;5.468;2023-04-09T00:59:37;102454.81;;;12.22;69.32
68075;BME280;54864;52.002;5.468;2023-04-09T01:00:39;102456.91;;;12.09;68.85
68075;BME280;54864;52.002;5.468;2023-04-09T01:01:42;102452.56;;;12.06;68.59
68075;BME280;54864;52.002;5.468;2023-04-09T01:02:43;102451.22;;;11.90;69.61
68075;BME280;54864;52.002;5.468;2023-04-09T01:03:45;102452.59;;;12.05;69.50
68075;BME280;54864;52.002;5.468;2023-04-09T01:04:46;102461.28;;;12.10;69.22
68075;BME280;54864;52.002;5.468;2023-04-09T01:05:53;102456.78;;;12.14;69.49
68075;BME280;54864;52.002;5.468;2023-04-09T01:07:04;102455.00;;;12.14;68.91
68075;BME280;54864;52.002;5.468;2023-04-09T01:08:13;102452.22;;;12.20;69.01
68075;BME280;54864;52.002;5.468;2023-04-09T01:09:20;102456.66;;;12.18;69.02
68075;BME280;54864;52.002;5.468;2023-04-09T01:10:32;102455.81;;;12.18;69.09
68075;BME280;54864;52.002;5.468;2023-04-09T01:11:42;102452.41;;;12.13;69.14
68075;BME280;54864;52.002;5.468;2023-04-09T01:12:53;102452.44;;;12.11;69.21
68075;BME280;54864;52.002;5.468;2023-04-09T01:14:04;102454.50;;;12.00;68.81
68075;BME280;54864;52.002;5.468;2023-04-09T01:15:09;102447.34;;;12.03;69.00
68075;BME280;54864;52.002;5.468;2023-04-09T01:16:14;102460.50;;;12.06;68.91
68075;BME280;54864;52.002;5.468;2023-04-09T01:17:21;102446.38;;;12.07;69.53
68075;BME280;54864;52.002;5.468;2023-04-09T01:18:28;102451.59;;;12.11;68.93
68075;BME280;54864;52.002;5.468;2023-04-09T01:19:38;102446.22;;;12.14;69.07
68075;BME280;54864;52.002;5.468;2023-04-09T01:20:42;102450.50;;;12.18;68.85
68075;BME280;54864;52.002;5.468;2023-04-09T01:21:46;102450.34;;;12.24;69.38
68075;BME280;54864;52.002;5.468;2023-04-09T01:22:57;102446.72;;;12.28;68.66
68075;BME280;54864;52.002;5.468;2023-04-09T01:24:12;102449.38;;;12.28;68.62
68075;BME280;54864;52.002;5.468;2023-04-09T01:25:29;102442.53;;;12.19;68.50
68075;BME280;54864;52.002;5.468;2023-04-09T01:26:44;102436.63;;;12.10;68.85
68075;BME280;54864;52.002;5.468;2023-04-09T01:28:59;102441.00;;;12.11;68.83
68075;BME280;54864;52.002;5.468;2023-04-09T01:30:04;102439.19;;;12.13;68.86
68075;BME280;54864;52.002;5.468;2023-04-09T01:31:09;102444.34;;;12.17;69.09
68075;BME280;54864;52.002;5.468;2023-04-09T01:32:14;102444.25;;;12.22;68.63
68075;BME280;54864;52.002;5.468;2023-04-09T01:33:17;102439.03;;;12.19;69.05
68075;BME280;54864;52.002;5.468;2023-04-09T01:34:24;102432.84;;;12.20;69.12
68075;BME280;54864;52.002;5.468;2023-04-09T01:35:27;102438.16;;;12.18;69.19
68075;BME280;54864;52.002;5.468;2023-04-09T01:36:30;102440.03;;;12.15;69.27
68075;BME280;54864;52.002;5.468;2023-04-09T01:37:32;102436.50;;;12.14;68.53
68075;BME280;54864;52.002;5.468;2023-04-09T01:38:34;102438.19;;;12.17;68.68
68075;BME280;54864;52.002;5.468;2023-04-09T01:39:36;102434.72;;;12.15;68.95
68075;BME280;54864;52.002;5.468;2023-04-09T01:40:39;102438.31;;;12.12;68.86
68075;BME280;54864;52.002;5.468;2023-04-09T01:41:40;102436.50;;;12.14;68.97
68075;BME280;54864;52.002;5.468;2023-04-09T01:42:43;102435.59;;;12.15;68.97
68075;BME280;54864;52.002;5.468;2023-04-09T01:43:45;102427.63;;;12.17;68.52
68075;BME280;54864;52.002;5.468;2023-04-09T01:44:50;102435.47;;;12.20;68.64
68075;BME280;54864;52.002;5.468;2023-04-09T01:45:53;102435.34;;;12.24;69.29
68075;BME280;54864;52.002;5.468;2023-04-09T01:46:58;102431.84;;;12.24;68.22
68075;BME280;54864;52.002;5.468;2023-04-09T01:48:00;102431.25;;;12.13;68.63
68075;BME280;54864;52.002;5.468;2023-04-09T01:49:03;102430.44;;;12.11;68.83
68075;BME280;54864;52.002;5.468;2023-04-09T01:50:05;102425.19;;;12.09;69.26
68075;BME280;54864;52.002;5.468;2023-04-09T01:51:08;102433.97;;;12.10;69.21
68075;BME280;54864;52.002;5.468;2023-04-09T01:52:13;102433.00;;;12.14;69.54
68075;BME280;54864;52.002;5.468;2023-04-09T01:53:15;102423.25;;;12.16;69.03
68075;BME280;54864;52.002;5.468;2023-04-09T01:54:17;102426.00;;;12.11;69.52
68075;BME280;54864;52.002;5.468;2023-04-09T01:55:18;102434.69;;;12.16;69.40
68075;BME280;54864;52.002;5.468;2023-04-09T01:56:19;102429.38;;;12.18;69.07
68075;BME280;54864;52.002;5.468;2023-04-09T01:57:21;102428.41;;;12.20;69.06
68075;BME280;54864;52.002;5.468;2023-04-09T01:58:23;102434.59;;;12.19;69.21
68075;BME280;54864;52.002;5.468;2023-04-09T01:59:25;102432.84;;;12.20;69.73
68075;BME280;54864;52.002;5.468;2023-04-09T02:00:33;102428.28;;;12.25;69.52
68075;BME280;54864;52.002;5.468;2023-04-09T02:01:40;102431.84;;;12.24;69.49
68075;BME280;54864;52.002;5.468;2023-04-09T02:02:46;102433.50;;;12.28;69.25
68075;BME280;54864;52.002;5.468;2023-04-09T02:03:53;102431.72;;;12.28;68.81
68075;BME280;54864;52.002;5.468;2023-04-09T02:04:55;102433.63;;;12.23;68.80
68075;BME280;54864;52.002;5.468;2023-04-09T02:06:06;102426.69;;;12.19;69.10
68075;BME280;54864;52.002;5.468;2023-04-09T02:07:11;102434.72;;;12.15;69.31
68075;BME280;54864;52.002;5.468;2023-04-09T02:08:19;102424.78;;;12.24;68.77
68075;BME280;54864;52.002;5.468;2023-04-09T02:09:23;102426.63;;;12.21;69.35
68075;BME280;54864;52.002;5.468;2023-04-09T02:10:26;102427.50;;;12.21;69.65
68075;BME280;54864;52.002;5.468;2023-04-09T02:11:36;102423.88;;;12.25;69.80
68075;BME280;54864;52.002;5.468;2023-04-09T02:12:43;102431.63;;;12.31;69.43
68075;BME280;54864;52.002;5.468;2023-04-09T02:13:45;102426.34;;;12.31;69.39
68075;BME280;54864;52.002;5.468;2023-04-09T02:14:52;102427.25;;;12.30;68.59
68075;BME280;54864;52.002;5.468;2023-04-09T02:15:55;102420.47;;;12.20;68.64
68075;BME280;54864;52.002;5.468;2023-04-09T02:16:58;102422.28;;;12.18;68.78
68075;BME280;54864;52.002;5.468;2023-04-09T02:17:59;102420.59;;;12.16;69.09
68075;BME280;54864;52.002;5.468;2023-04-09T02:19:01;102421.63;;;12.10;69.83
68075;BME280;54864;52.002;5.468;2023-04-09T02:20:03;102419.69;;;12.17;69.70
68075;BME280;54864;52.002;5.468;2023-04-09T02:21:05;102419.66;;;12.18;69.96
68075;BME280;54864;52.002;5.468;2023-04-09T02:22:06;102417.84;;;12.20;69.51
68075;BME280;54864;52.002;5.468;2023-04-09T02:23:08;102423.91;;;12.24;69.61
68075;BME280;54864;52.002;5.468;2023-04-09T02:24:09;102415.06;;;12.25;69.29
68075;BME280;54864;52.002;5.468;2023-04-09T02:25:11;102407.25;;;12.20;69.83
68075;BME280;54864;52.002;5.468;2023-04-09T02:26:12;102412.50;;;12.22;69.27
68075;BME280;54864;52.002;5.468;2023-04-09T02:27:13;102420.59;;;12.16;69.62
68075;BME280;54864;52.002;5.468;2023-04-09T02:28:15;102413.47;;;12.19;69.39
68075;BME280;54864;52.002;5.468;2023-04-09T02:29:17;102408.91;;;12.24;69.42
68075;BME280;54864;52.002;5.468;2023-04-09T02:30:17;102415.94;;;12.25;69.30
68075;BME280;54864;52.002;5.468;2023-04-09T02:31:21;102411.41;;;12.30;69.17
68075;BME280;54864;52.002;5.468;2023-04-09T02:32:21;102409.75;;;12.26;68.84
68075;BME280;54864;52.002;5.468;2023-04-09T02:33:23;102403.53;;;12.27;69.17
68075;BME280;54864;52.002;5.468;2023-04-09T02:34:24;102403.59;;;12.26;69.37
68075;BME280;54864;52.002;5.468;2023-04-09T02:35:26;102413.53;;;12.16;69.55
68075;BME280;54864;52.002;5.468;2023-04-09T02:36:26;102405.53;;;12.19;69.31
68075;BME280;54864;52.002;5.468;2023-04-09T02:37:28;102407.53;;;12.10;69.66
68075;BME280;54864;52.002;5.468;2023-04-09T02:38:29;102404.66;;;12.19;69.54
68075;BME280;54864;52.002;5.468;2023-04-09T02:39:31;102401.19;;;12.17;69.54
68075;BME280;54864;52.002;5.468;2023-04-09T02:40:32;102403.88;;;12.15;69.35
68075;BME280;54864;52.002;5.468;2023-04-09T02:41:34;102411.06;;;12.10;69.38
68075;BME280;54864;52.002;5.468;2023-04-09T02:42:37;102404.97;;;12.06;69.95
68075;BME280;54864;52.002;5.468;2023-04-09T02:43:38;102402.31;;;12.08;69.50
68075;BME280;54864;52.002;5.468;2023-04-09T02:44:42;102405.88;;;12.05;69.94
68075;BME280;54864;52.002;5.468;2023-04-09T02:45:47;102402.69;;;11.93;69.48
68075;BME280;54864;52.002;5.468;2023-04-09T02:46:51;102403.09;;;11.78;69.79
68075;BME280;54864;52.002;5.468;2023-04-09T02:47:51;102398.75;;;11.73;70.80
68075;BME280;54864;52.002;5.468;2023-04-09T02:48:53;102397.06;;;11.71;70.53
68075;BME280;54864;52.002;5.468;2023-04-09T02:49:54;102396.16;;;11.72;70.12
68075;BME280;54864;52.002;5.468;2023-04-09T02:50:57;102395.13;;;11.79;70.25
68075;BME280;54864;52.002;5.468;2023-04-09T02:52:00;102397.66;;;11.84;70.43
68075;BME280;54864;52.002;5.468;2023-04-09T02:53:01;102398.41;;;11.89;70.18
68075;BME280;54864;52.002;5.468;2023-04-09T02:54:03;102402.66;;;11.94;70.35
68075;BME280;54864;52.002;5.468;2023-04-09T02:55:06;102398.13;;;11.99;69.97
68075;BME280;54864;52.002;5.468;2023-04-09T02:56:10;102396.34;;;12.00;70.17
68075;BME280;54864;52.002;5.468;2023-04-09T02:57:11;102399.03;;;11.98;70.37
68075;BME280;54864;52.002;5.468;2023-04-09T02:58:12;102397.19;;;12.02;70.28
68075;BME280;54864;52.002;5.468;2023-04-09T02:59:14;102395.28;;;12.07;69.66
68075;BME280;54864;52.002;5.468;2023-04-09T03:00:15;102400.47;;;12.10;70.42
68075;BME280;54864;52.002;5.468;2023-04-09T03:01:19;102395.59;;;11.95;69.93
68075;BME280;54864;52.002;5.468;2023-04-09T03:02:22;102392.78;;;12.01;69.78
68075;BME280;54864;52.002;5.468;2023-04-09T03:03:23;102398.94;;;12.01;69.96
68075;BME280;54864;52.002;5.468;2023-04-09T03:04:24;102394.44;;;12.05;70.32
68075;BME280;54864;52.002;5.468;2023-04-09T03:05:26;102389.94;;;12.09;69.98
68075;BME280;54864;52.002;5.468;2023-04-09T03:06:27;102395.06;;;12.15;70.13
68075;BME280;54864;52.002;5.468;2023-04-09T03:07:29;102399.63;;;12.10;70.29
68075;BME280;54864;52.002;5.468;2023-04-09T03:08:29;102388.88;;;12.16;69.67
68075;BME280;54864;52.002;5.468;2023-04-09T03:09:31;102391.75;;;12.06;69.40
68075;BME280;54864;52.002;5.468;2023-04-09T03:10:32;102396.09;;;12.09;69.62
68075;BME280;54864;52.002;5.468;2023-04-09T03:11:34;102393.66;;;12.01;69.38
68075;BME280;54864;52.002;5.468;2023-04-09T03:12:37;102393.16;;;11.87;69.63
68075;BME280;54864;52.002;5.468;2023-04-09T03:13:39;102401.91;;;11.89;69.83
68075;BME280;54864;52.002;5.468;2023-04-09T03:14:42;102399.47;;;11.82;69.83
68075;BME280;54864;52.002;5.468;2023-04-09T03:15:44;102401.13;;;11.86;70.02
68075;BME280;54864;52.002;5.468;2023-04-09T03:16:44;102399.44;;;11.83;70.27
68075;BME280;54864;52.002;5.468;2023-04-09T03:17:48;102399.22;;;11.91;70.40
68075;BME280;54864;52.002;5.468;2023-04-09T03:18:48;102399.31;;;11.88;70.29
68075;BME280;54864;52.002;5.468;2023-04-09T03:19:50;102400.00;;;11.94;70.34
68075;BME280;54864;52.002;5.468;2023-04-09T03:20:51;102399.09;;;11.95;70.56
68075;BME280;54864;52.002;5.468;2023-04-09T03:21:52;102393.66;;;12.01;70.07
68075;BME280;54864;52.002;5.468;2023-04-09T03:22:54;102395.47;;;11.99;70.09
68075;BME280;54864;52.002;5.468;2023-04-09T03:23:55;102394.84;;;11.90;69.97
68075;BME280;54864;52.002;5.468;2023-04-09T03:24:58;102385.03;;;11.95;70.00
68075;BME280;54864;52.002;5.468;2023-04-09T03:26:00;102388.50;;;11.97;69.88
68075;BME280;54864;52.002;5.468;2023-04-09T03:27:01;102386.81;;;11.94;69.99
68075;BME280;54864;52.002;5.468;2023-04-09T03:28:02;102390.06;;;12.04;70.38
68075;BME280;54864;52.002;5.468;2023-04-09T03:29:05;102387.59;;;11.98;70.10
68075;BME280;54864;52.002;5.468;2023-04-09T03:30:06;102385.03;;;11.95;70.14
68075;BME280;54864;52.002;5.468;2023-04-09T03:31:08;102383.59;;;11.82;70.63
68075;BME280;54864;52.002;5.468;2023-04-09T03:32:09;102390.50;;;11.87;70.43
68075;BME280;54864;52.002;5.468;2023-04-09T03:33:13;102387.06;;;11.84;70.70
68075;BME280;54864;52.002;5.468;2023-04-09T03:34:13;102385.31;;;11.84;70.84
68075;BME280;54864;52.002;5.468;2023-04-09T03:35:15;102386.22;;;11.83;70.26
68075;BME280;54864;52.002;5.468;2023-04-09T03:36:21;102384.44;;;11.84;70.30
68075;BME280;54864;52.002;5.468;2023-04-09T03:37:24;102379.34;;;11.74;70.38
68075;BME280;54864;52.002;5.468;2023-04-09T03:38:25;102383.06;;;11.66;70.54
68075;BME280;54864;52.002;5.468;2023-04-09T03:39:26;102370.00;;;11.60;70.57
68075;BME280;54864;52.002;5.468;2023-04-09T03:40:30;102383.09;;;11.64;71.04
68075;BME280;54864;52.002;5.468;2023-04-09T03:41:33;102377.69;;;11.69;70.75
68075;BME280;54864;52.002;5.468;2023-04-09T03:42:36;102385.13;;;11.53;70.67
68075;BME280;54864;52.002;5.468;2023-04-09T03:43:37;102380.72;;;11.54;70.72
68075;BME280;54864;52.002;5.468;2023-04-09T03:44:41;102371.91;;;11.55;70.84
68075;BME280;54864;52.002;5.468;2023-04-09T03:45:48;102378.09;;;11.54;71.11
68075;BME280;54864;52.002;5.468;2023-04-09T03:46:49;102377.94;;;11.60;71.43
68075;BME280;54864;52.002;5.468;2023-04-09T03:47:51;102381.22;;;11.69;70.98
68075;BME280;54864;52.002;5.468;2023-04-09T03:48:54;102381.00;;;11.80;71.25
68075;BME280;54864;52.002;5.468;2023-04-09T03:49:55;102372.88;;;11.88;71.32
68075;BME280;54864;52.002;5.468;2023-04-09T03:50:56;102369.44;;;11.84;70.77
68075;BME280;54864;52.002;5.468;2023-04-09T03:52:01;102379.00;;;11.90;70.94
68075;BME280;54864;52.002;5.468;2023-04-09T03:53:02;102382.78;;;11.80;69.76
68075;BME280;54864;52.002;5.468;2023-04-09T03:54:06;102377.56;;;11.75;70.42
68075;BME280;54864;52.002;5.468;2023-04-09T03:55:08;102369.53;;;11.81;70.50
68075;BME280;54864;52.002;5.468;2023-04-09T03:56:10;102376.38;;;11.88;70.45
68075;BME280;54864;52.002;5.468;2023-04-09T03:57:12;102378.91;;;11.93;70.38
68075;BME280;54864;52.002;5.468;2023-04-09T03:58:13;102376.50;;;11.84;70.72
68075;BME280;54864;52.002;5.468;2023-04-09T03:59:16;102364.88;;;11.91;70.76
68075;BME280;54864;52.002;5.468;2023-04-09T04:00:19;102369.09;;;11.98;70.73
68075;BME280;54864;52.002;5.468;2023-04-09T04:01:19;102370.66;;;12.05;70.56
68075;BME280;54864;52.002;5.468;2023-04-09T04:02:21;102371.47;;;12.07;70.14
68075;BME280;54864;52.002;5.468;2023-04-09T04:03:22;102367.16;;;12.04;69.83
68075;BME280;54864;52.002;5.468;2023-04-09T04:04:25;102368.19;;;11.99;69.47
68075;BME280;54864;52.002;5.468;2023-04-09T04:05:26;102366.44;;;11.98;69.46
68075;BME280;54864;52.002;5.468;2023-04-09T04:06:27;102368.31;;;11.94;69.22
68075;BME280;54864;52.002;5.468;2023-04-09T04:07:28;102364.00;;;11.90;69.22
68075;BME280;54864;52.002;5.468;2023-04-09T04:08:30;102367.88;;;11.75;69.41
68075;BME280;54864;52.002;5.468;2023-04-09T04:09:33;102368.78;;;11.74;69.70
68075;BME280;54864;52.002;5.468;2023-04-09T04:10:36;102361.75;;;11.73;69.66
68075;BME280;54864;52.002;5.468;2023-04-09T04:11:37;102357.44;;;11.71;70.08
68075;BME280;54864;52.002;5.468;2023-04-09T04:12:38;102362.56;;;11.77;69.80
68075;BME280;54864;52.002;5.468;2023-04-09T04:13:39;102362.47;;;11.82;69.73
68075;BME280;54864;52.002;5.468;2023-04-09T04:14:43;102362.72;;;11.71;69.92
68075;BME280;54864;52.002;5.468;2023-04-09T04:15:44;102356.88;;;11.57;69.90
68075;BME280;54864;52.002;5.468;2023-04-09T04:16:45;102355.81;;;11.64;70.01
68075;BME280;54864;52.002;5.468;2023-04-09T04:17:46;102357.66;;;11.60;70.39
68075;BME280;54864;52.002;5.468;2023-04-09T04:18:48;102362.72;;;11.69;70.17
68075;BME280;54864;52.002;5.468;2023-04-09T04:19:50;102363.50;;;11.74;70.06
68075;BME280;54864;52.002;5.468;2023-04-09T04:20:52;102361.72;;;11.75;69.91
68075;BME280;54864;52.002;5.468;2023-04-09T04:21:54;102362.63;;;11.74;70.28
68075;BME280;54864;52.002;5.468;2023-04-09T04:23:18;102366.25;;;11.68;69.78
68075;BME280;54864;52.002;5.468;2023-04-09T04:24:20;102364.94;;;11.51;69.07
68075;BME280;54864;52.002;5.468;2023-04-09T04:25:21;102361.50;;;11.47;69.45
68075;BME280;54864;52.002;5.468;2023-04-09T04:26:23;102371.06;;;11.53;69.81
68075;BME280;54864;52.002;5.468;2023-04-09T04:27:24;102363.13;;;11.53;70.06
68075;BME280;54864;52.002;5.468;2023-04-09T04:28:26;102366.75;;;11.49;70.62
68075;BME280;54864;52.002;5.468;2023-04-09T04:29:29;102361.59;;;11.44;70.87
68075;BME280;54864;52.002;5.468;2023-04-09T04:30:36;102359.75;;;11.48;70.69
68075;BME280;54864;52.002;5.468;2023-04-09T04:31:36;102369.47;;;11.46;69.96
68075;BME280;54864;52.002;5.468;2023-04-09T04:32:38;102365.78;;;11.53;70.18
68075;BME280;54864;52.002;5.468;2023-04-09T04:33:40;102363.94;;;11.56;70.14
68075;BME280;54864;52.002;5.468;2023-04-09T04:34:42;102367.75;;;11.44;69.75
68075;BME280;54864;52.002;5.468;2023-04-09T04:35:44;102363.50;;;11.37;70.57
68075;BME280;54864;52.002;5.468;2023-04-09T04:36:46;102359.13;;;11.36;69.91
68075;BME280;54864;52.002;5.468;2023-04-09T04:37:48;102365.31;;;11.35;69.68
68075;BME280;54864;52.002;5.468;2023-04-09T04:38:50;102373.97;;;11.42;69.63
68075;BME280;54864;52.002;5.468;2023-04-09T04:39:53;102367.69;;;11.46;69.91
68075;BME280;54864;52.002;5.468;2023-04-09T04:40:55;102373.75;;;11.51;69.97
68075;BME280;54864;52.002;5.468;2023-04-09T04:41:55;102368.31;;;11.57;69.70
68075;BME280;54864;52.002;5.468;2023-04-09T04:42:57;102366.66;;;11.53;69.76
68075;BME280;54864;52.002;5.468;2023-04-09T04:43:58;102366.63;;;11.55;69.17
68075;BME280;54864;52.002;5.468;2023-04-09T04:45:00;102369.31;;;11.52;69.08
68075;BME280;54864;52.002;5.468;2023-04-09T04:46:03;102371.19;;;11.48;69.10
68075;BME280;54864;52.002;5.468;2023-04-09T04:47:05;102369.31;;;11.52;68.78
68075;BME280;54864;52.002;5.468;2023-04-09T04:48:06;102366.69;;;11.52;68.66
68075;BME280;54864;52.002;5.468;2023-04-09T04:49:08;102368.47;;;11.51;68.26
68075;BME280;54864;52.002;5.468;2023-04-09T04:50:09;102367.44;;;11.57;67.99
68075;BME280;54864;52.002;5.468;2023-04-09T04:51:12;102370.22;;;11.51;68.50
68075;BME280;54864;52.002;5.468;2023-04-09T04:52:12;102365.94;;;11.47;68.68
68075;BME280;54864;52.002;5.468;2023-04-09T04:53:16;102363.47;;;11.39;68.25
68075;BME280;54864;52.002;5.468;2023-04-09T04:54:17;102362.72;;;11.34;68.42
68075;BME280;54864;52.002;5.468;2023-04-09T04:55:22;102366.06;;;11.40;68.52
68075;BME280;54864;52.002;5.468;2023-04-09T04:56:22;102369.56;;;11.42;68.03
68075;BME280;54864;52.002;5.468;2023-04-09T04:57:24;102369.50;;;11.44;68.24
68075;BME280;54864;52.002;5.468;2023-04-09T04:58:27;102360.97;;;11.33;68.08
68075;BME280;54864;52.002;5.468;2023-04-09T04:59:29;102367.03;;;11.38;68.58
68075;BME280;54864;52.002;5.468;2023-04-09T05:00:30;102362.59;;;11.38;68.73
68075;BME280;54864;52.002;5.468;2023-04-09T05:01:32;102360.63;;;11.48;69.11
68075;BME280;54864;52.002;5.468;2023-04-09T05:02:35;102367.50;;;11.54;68.81
68075;BME280;54864;52.002;5.468;2023-04-09T05:03:36;102366.38;;;11.64;68.50
68075;BME280;54864;52.002;5.468;2023-04-09T05:04:38;102364.66;;;11.63;68.74
68075;BME280;54864;52.002;5.468;2023-04-09T05:05:40;102367.13;;;11.70;68.30
68075;BME280;54864;52.002;5.468;2023-04-09T05:06:43;102373.16;;;11.75;67.45
68075;BME280;54864;52.002;5.468;2023-04-09T05:07:44;102360.03;;;11.72;67.53
68075;BME280;54864;52.002;5.468;2023-04-09T05:08:45;102367.13;;;11.70;68.58
68075;BME280;54864;52.002;5.468;2023-04-09T05:09:46;102364.31;;;11.78;68.27
68075;BME280;54864;52.002;5.468;2023-04-09T05:10:48;102359.75;;;11.85;68.42
68075;BME280;54864;52.002;5.468;2023-04-09T05:11:48;102360.53;;;11.88;67.66
68075;BME280;54864;52.002;5.468;2023-04-09T05:12:50;102363.13;;;11.90;67.52
68075;BME280;54864;52.002;5.468;2023-04-09T05:13:51;102355.25;;;11.88;67.91
68075;BME280;54864;52.002;5.468;2023-04-09T05:14:53;102361.72;;;11.75;67.20
68075;BME280;54864;52.002;5.468;2023-04-09T05:15:54;102359.91;;;11.79;67.47
68075;BME280;54864;52.002;5.468;2023-04-09T05:16:56;102357.47;;;11.68;67.86
68075;BME280;54864;52.002;5.468;2023-04-09T05:17:57;102357.44;;;11.69;67.90
68075;BME280;54864;52.002;5.468;2023-04-09T05:18:58;102369.63;;;11.77;67.47
68075;BME280;54864;52.002;5.468;2023-04-09T05:19:59;102362.47;;;11.82;67.21
68075;BME280;54864;52.002;5.468;2023-04-09T05:21:02;102366.84;;;11.83;67.63
68075;BME280;54864;52.002;5.468;2023-04-09T05:22:04;102367.00;;;11.75;66.55
68075;BME280;54864;52.002;5.468;2023-04-09T05:23:06;102366.97;;;11.77;67.04
68075;BME280;54864;52.002;5.468;2023-04-09T05:24:09;102366.09;;;11.76;67.03
68075;BME280;54864;52.002;5.468;2023-04-09T05:25:10;102361.72;;;11.75;67.23
68075;BME280;54864;52.002;5.468;2023-04-09T05:26:15;102356.75;;;11.61;68.22
68075;BME280;54864;52.002;5.468;2023-04-09T05:27:15;102356.63;;;11.66;68.03
68075;BME280;54864;52.002;5.468;2023-04-09T05:28:18;102361.13;;;11.62;67.94
68075;BME280;54864;52.002;5.468;2023-04-09T05:29:19;102361.06;;;11.65;67.88